EZY414 EGKK-EKCH
Flight info
| Callsign | EZY414 |
|---|---|
| Flight time | 1h 19m |
| Altitude | 39000 |
| Route | FRANE M604 PAAVO Q295 SOMVA DCT MAVAS DCT ANDIK N873 JUIST DCT ROCZO DCT DOSUR DCT TALSA P729 TUDLO |
| Aircraft | A20N/M-SDE2E3FGHIRWXY/LB1 |
Departure
| Time | 2026-04-24 09:27 |
|---|---|
| Airport | London Gatwick Airport (EGKK) |
Arrival
| Time | 2026-04-24 10:46 |
|---|---|
| Airport | Copenhagen Kastrup Airport (EKCH) |
| Time | Latitude | Longitude | Altitude | Speed | Heading |
|---|---|---|---|---|---|
| 2026-04-24 09:06 | 51.15573 | -0.17756 | 203 ft | 0 kts | 348° |
| 2026-04-24 09:13 | 51.15554 | -0.17748 | 214 ft | 4 kts | 342° |
| 2026-04-24 09:14 | 51.15533 | -0.17735 | 211 ft | 3 kts | 328° |
| 2026-04-24 09:14 | 51.15522 | -0.17722 | 212 ft | 2 kts | 305° |
| 2026-04-24 09:14 | 51.15517 | -0.17707 | 213 ft | 2 kts | 281° |
| 2026-04-24 09:14 | 51.15516 | -0.17686 | 210 ft | 2 kts | 265° |
| 2026-04-24 09:15 | 51.15517 | -0.17667 | 212 ft | 2 kts | 259° |
| 2026-04-24 09:15 | 51.15519 | -0.17650 | 215 ft | 2 kts | 257° |
| 2026-04-24 09:15 | 51.15521 | -0.17637 | 213 ft | 0 kts | 256° |
| 2026-04-24 09:17 | 51.15517 | -0.17670 | 212 ft | 8 kts | 259° |
| 2026-04-24 09:17 | 51.15501 | -0.17789 | 206 ft | 14 kts | 258° |
| 2026-04-24 09:17 | 51.15478 | -0.17962 | 207 ft | 18 kts | 258° |
| 2026-04-24 09:17 | 51.15442 | -0.18146 | 208 ft | 14 kts | 227° |
| 2026-04-24 09:18 | 51.15368 | -0.18142 | 207 ft | 13 kts | 169° |
| 2026-04-24 09:18 | 51.15272 | -0.18103 | 208 ft | 16 kts | 166° |
| 2026-04-24 09:18 | 51.15200 | -0.18188 | 212 ft | 16 kts | 256° |
| 2026-04-24 09:18 | 51.15181 | -0.18380 | 204 ft | 20 kts | 257° |
| 2026-04-24 09:19 | 51.15149 | -0.18608 | 204 ft | 23 kts | 258° |
| 2026-04-24 09:19 | 51.15113 | -0.18868 | 213 ft | 25 kts | 257° |
| 2026-04-24 09:19 | 51.15074 | -0.19149 | 208 ft | 27 kts | 258° |
| 2026-04-24 09:19 | 51.15029 | -0.19454 | 210 ft | 28 kts | 259° |
| 2026-04-24 09:20 | 51.15000 | -0.19684 | 211 ft | 19 kts | 257° |
| 2026-04-24 09:20 | 51.14968 | -0.19913 | 208 ft | 23 kts | 257° |
| 2026-04-24 09:20 | 51.14932 | -0.20169 | 206 ft | 15 kts | 257° |
| 2026-04-24 09:20 | 51.14908 | -0.20335 | 207 ft | 25 kts | 257° |
| 2026-04-24 09:21 | 51.14866 | -0.20644 | 208 ft | 31 kts | 258° |
| 2026-04-24 09:21 | 51.14823 | -0.20995 | 214 ft | 33 kts | 258° |
| 2026-04-24 09:21 | 51.14776 | -0.21255 | 204 ft | 21 kts | 259° |
| 2026-04-24 09:21 | 51.14725 | -0.21404 | 207 ft | 0 kts | 185° |
| 2026-04-24 09:23 | 51.14708 | -0.21403 | 209 ft | 9 kts | 174° |
| 2026-04-24 09:23 | 51.14632 | -0.21336 | 206 ft | 14 kts | 163° |
| 2026-04-24 09:23 | 51.14606 | -0.21326 | 207 ft | 0 kts | 167° |
| 2026-04-24 09:24 | 51.14603 | -0.21325 | 204 ft | 4 kts | 167° |
| 2026-04-24 09:24 | 51.14536 | -0.21270 | 202 ft | 15 kts | 127° |
| 2026-04-24 09:25 | 51.14526 | -0.21116 | 213 ft | 4 kts | 78° |
| 2026-04-24 09:25 | 51.14526 | -0.21115 | 213 ft | 0 kts | 78° |
| 2026-04-24 09:26 | 51.14545 | -0.20988 | 208 ft | 44 kts | 77° |
| 2026-04-24 09:26 | 51.14662 | -0.20138 | 208 ft | 109 kts | 78° |
| 2026-04-24 09:26 | 51.14854 | -0.18696 | 303 ft | 148 kts | 77° |
| 2026-04-24 09:26 | 51.15089 | -0.17009 | 721 ft | 162 kts | 78° |
| 2026-04-24 09:27 | 51.15281 | -0.15110 | 1269 ft | 186 kts | 80° |
| 2026-04-24 09:27 | 51.15540 | -0.12977 | 1919 ft | 215 kts | 79° |
| 2026-04-24 09:27 | 51.15899 | -0.10541 | 2633 ft | 236 kts | 78° |
| 2026-04-24 09:27 | 51.16302 | -0.07918 | 3571 ft | 247 kts | 78° |
| 2026-04-24 09:28 | 51.16688 | -0.05224 | 4441 ft | 252 kts | 79° |
| 2026-04-24 09:28 | 51.16882 | -0.02469 | 5103 ft | 253 kts | 90° |
| 2026-04-24 09:28 | 51.16833 | 0.00349 | 5744 ft | 254 kts | 92° |
| 2026-04-24 09:28 | 51.17104 | 0.03136 | 6387 ft | 262 kts | 68° |
| 2026-04-24 09:29 | 51.18186 | 0.05461 | 7012 ft | 268 kts | 41° |
| 2026-04-24 09:29 | 51.19732 | 0.07161 | 7614 ft | 270 kts | 36° |
| 2026-04-24 09:29 | 51.21319 | 0.08816 | 8242 ft | 275 kts | 36° |
| 2026-04-24 09:29 | 51.22921 | 0.10497 | 8881 ft | 277 kts | 36° |
| 2026-04-24 09:30 | 51.24536 | 0.12191 | 9524 ft | 280 kts | 36° |
| 2026-04-24 09:30 | 51.26172 | 0.13906 | 10178 ft | 283 kts | 36° |
| 2026-04-24 09:30 | 51.27834 | 0.15657 | 10782 ft | 293 kts | 36° |
| 2026-04-24 09:30 | 51.29584 | 0.17505 | 11405 ft | 309 kts | 36° |
| 2026-04-24 09:31 | 51.31422 | 0.19458 | 12036 ft | 324 kts | 36° |
| 2026-04-24 09:31 | 51.33331 | 0.21511 | 12682 ft | 338 kts | 36° |
| 2026-04-24 09:31 | 51.35316 | 0.23649 | 13322 ft | 349 kts | 36° |
| 2026-04-24 09:31 | 51.37339 | 0.25861 | 13971 ft | 355 kts | 36° |
| 2026-04-24 09:32 | 51.38698 | 0.27347 | 14393 ft | 359 kts | 36° |
| 2026-04-24 09:32 | 51.40775 | 0.29615 | 14984 ft | 363 kts | 36° |
| 2026-04-24 09:32 | 51.42862 | 0.31918 | 15601 ft | 368 kts | 36° |
| 2026-04-24 09:32 | 51.44987 | 0.34253 | 16225 ft | 372 kts | 36° |
| 2026-04-24 09:33 | 51.47126 | 0.36618 | 16862 ft | 376 kts | 36° |
| 2026-04-24 09:33 | 51.49299 | 0.39019 | 17513 ft | 381 kts | 36° |
| 2026-04-24 09:33 | 51.51485 | 0.41443 | 18173 ft | 385 kts | 36° |
| 2026-04-24 09:33 | 51.53699 | 0.43901 | 18830 ft | 389 kts | 36° |
| 2026-04-24 09:34 | 51.55933 | 0.46396 | 19428 ft | 392 kts | 37° |
| 2026-04-24 09:34 | 51.57904 | 0.49427 | 20041 ft | 393 kts | 54° |
| 2026-04-24 09:34 | 51.59345 | 0.53168 | 20731 ft | 395 kts | 62° |
| 2026-04-24 09:34 | 51.60713 | 0.57033 | 21350 ft | 400 kts | 62° |
| 2026-04-24 09:35 | 51.62085 | 0.60950 | 21983 ft | 404 kts | 62° |
| 2026-04-24 09:35 | 51.63456 | 0.64865 | 22607 ft | 408 kts | 62° |
| 2026-04-24 09:35 | 51.64857 | 0.68867 | 23211 ft | 413 kts | 62° |
| 2026-04-24 09:35 | 51.66273 | 0.72916 | 23821 ft | 417 kts | 62° |
| 2026-04-24 09:36 | 51.67703 | 0.77009 | 24341 ft | 421 kts | 62° |
| 2026-04-24 09:36 | 51.69146 | 0.81147 | 24824 ft | 426 kts | 62° |
| 2026-04-24 09:36 | 51.70602 | 0.85329 | 25311 ft | 430 kts | 62° |
| 2026-04-24 09:36 | 51.72071 | 0.89553 | 25785 ft | 434 kts | 62° |
| 2026-04-24 09:37 | 51.73550 | 0.93816 | 26241 ft | 438 kts | 62° |
| 2026-04-24 09:37 | 51.75047 | 0.98132 | 26680 ft | 442 kts | 62° |
| 2026-04-24 09:37 | 51.76554 | 1.02487 | 27118 ft | 447 kts | 62° |
| 2026-04-24 09:37 | 51.78071 | 1.06881 | 27560 ft | 450 kts | 62° |
| 2026-04-24 09:38 | 51.79604 | 1.11328 | 27976 ft | 454 kts | 62° |
| 2026-04-24 09:38 | 51.81145 | 1.15806 | 28430 ft | 457 kts | 63° |
| 2026-04-24 09:38 | 51.82693 | 1.20310 | 28877 ft | 460 kts | 63° |
| 2026-04-24 09:38 | 51.84252 | 1.24854 | 29249 ft | 464 kts | 63° |
| 2026-04-24 09:39 | 51.85817 | 1.29427 | 29624 ft | 467 kts | 63° |
| 2026-04-24 09:39 | 51.87397 | 1.34051 | 29988 ft | 471 kts | 63° |
| 2026-04-24 09:39 | 51.88984 | 1.38707 | 30362 ft | 474 kts | 63° |
| 2026-04-24 09:39 | 51.90582 | 1.43402 | 30687 ft | 477 kts | 63° |
| 2026-04-24 09:40 | 51.92186 | 1.48122 | 30975 ft | 481 kts | 64° |
| 2026-04-24 09:40 | 51.93806 | 1.52898 | 31224 ft | 485 kts | 64° |
| 2026-04-24 09:40 | 51.95432 | 1.57702 | 31603 ft | 486 kts | 64° |
| 2026-04-24 09:40 | 51.97057 | 1.62513 | 32034 ft | 486 kts | 64° |
| 2026-04-24 09:41 | 51.98676 | 1.67315 | 32470 ft | 486 kts | 63° |
| 2026-04-24 09:41 | 52.00292 | 1.72120 | 32908 ft | 485 kts | 63° |
| 2026-04-24 09:41 | 52.01910 | 1.76938 | 33336 ft | 485 kts | 63° |
| 2026-04-24 09:41 | 52.03521 | 1.81745 | 33770 ft | 484 kts | 63° |
| 2026-04-24 09:42 | 52.05121 | 1.86531 | 34270 ft | 482 kts | 63° |
| 2026-04-24 09:42 | 52.06727 | 1.91345 | 34634 ft | 481 kts | 63° |
| 2026-04-24 09:42 | 52.08299 | 1.96064 | 34963 ft | 480 kts | 63° |
| 2026-04-24 09:42 | 52.09888 | 2.00841 | 35244 ft | 481 kts | 64° |
| 2026-04-24 09:43 | 52.11476 | 2.05628 | 35551 ft | 481 kts | 64° |
| 2026-04-24 09:43 | 52.13061 | 2.10412 | 35866 ft | 480 kts | 63° |
| 2026-04-24 09:43 | 52.14643 | 2.15200 | 36177 ft | 480 kts | 63° |
| 2026-04-24 09:43 | 52.16219 | 2.19977 | 36481 ft | 479 kts | 63° |
| 2026-04-24 09:44 | 52.17794 | 2.24758 | 36765 ft | 479 kts | 63° |
| 2026-04-24 09:44 | 52.19364 | 2.29538 | 37051 ft | 478 kts | 63° |
| 2026-04-24 09:44 | 52.20932 | 2.34319 | 37330 ft | 478 kts | 63° |
| 2026-04-24 09:44 | 52.22496 | 2.39098 | 37603 ft | 477 kts | 63° |
| 2026-04-24 09:45 | 52.24055 | 2.43873 | 37870 ft | 477 kts | 63° |
| 2026-04-24 09:45 | 52.25616 | 2.48657 | 38113 ft | 477 kts | 64° |
| 2026-04-24 09:45 | 52.27170 | 2.53428 | 38376 ft | 476 kts | 64° |
| 2026-04-24 09:45 | 52.28722 | 2.58206 | 38622 ft | 476 kts | 64° |
| 2026-04-24 09:46 | 52.30190 | 2.63041 | 38860 ft | 474 kts | 69° |
| 2026-04-24 09:46 | 52.31362 | 2.68070 | 39075 ft | 472 kts | 75° |
| 2026-04-24 09:46 | 52.32268 | 2.73220 | 39247 ft | 471 kts | 76° |
| 2026-04-24 09:46 | 52.33171 | 2.78377 | 39362 ft | 471 kts | 76° |
| 2026-04-24 09:47 | 52.34991 | 2.88653 | 39383 ft | 470 kts | 76° |
| 2026-04-24 09:47 | 52.36790 | 2.98924 | 39353 ft | 470 kts | 77° |
| 2026-04-24 09:48 | 52.38577 | 3.09217 | 39364 ft | 470 kts | 77° |
| 2026-04-24 09:48 | 52.40353 | 3.19520 | 39351 ft | 470 kts | 77° |
| 2026-04-24 09:49 | 52.42105 | 3.29763 | 39357 ft | 470 kts | 77° |
| 2026-04-24 09:49 | 52.43866 | 3.40082 | 39353 ft | 470 kts | 77° |
| 2026-04-24 09:50 | 52.45617 | 3.50413 | 39342 ft | 470 kts | 77° |
| 2026-04-24 09:50 | 52.47361 | 3.60757 | 39352 ft | 471 kts | 78° |
| 2026-04-24 09:51 | 52.49097 | 3.71124 | 39353 ft | 471 kts | 78° |
| 2026-04-24 09:51 | 52.50824 | 3.81506 | 39367 ft | 472 kts | 78° |
| 2026-04-24 09:52 | 52.52544 | 3.91910 | 39371 ft | 472 kts | 78° |
| 2026-04-24 09:52 | 52.54257 | 4.02332 | 39357 ft | 473 kts | 78° |
| 2026-04-24 09:53 | 52.55963 | 4.12770 | 39363 ft | 473 kts | 78° |
| 2026-04-24 09:53 | 52.57660 | 4.23227 | 39363 ft | 474 kts | 78° |
| 2026-04-24 09:54 | 52.59351 | 4.33705 | 39363 ft | 474 kts | 78° |
| 2026-04-24 09:54 | 52.61033 | 4.44199 | 39358 ft | 475 kts | 78° |
| 2026-04-24 09:55 | 52.62707 | 4.54702 | 39360 ft | 475 kts | 78° |
| 2026-04-24 09:55 | 52.64374 | 4.65236 | 39356 ft | 475 kts | 78° |
| 2026-04-24 09:56 | 52.66030 | 4.75762 | 39356 ft | 475 kts | 79° |
| 2026-04-24 09:56 | 52.67677 | 4.86298 | 39355 ft | 475 kts | 79° |
| 2026-04-24 09:57 | 52.69316 | 4.96847 | 39353 ft | 475 kts | 79° |
| 2026-04-24 09:57 | 52.70942 | 5.07393 | 39342 ft | 475 kts | 78° |
| 2026-04-24 09:58 | 52.72556 | 5.17877 | 39340 ft | 475 kts | 77° |
| 2026-04-24 09:58 | 52.74997 | 5.28018 | 39331 ft | 479 kts | 63° |
| 2026-04-24 09:59 | 52.78721 | 5.37138 | 39329 ft | 480 kts | 52° |
| 2026-04-24 09:59 | 52.82830 | 5.45837 | 39320 ft | 480 kts | 53° |
| 2026-04-24 10:00 | 52.86925 | 5.54569 | 39323 ft | 480 kts | 53° |
| 2026-04-24 10:00 | 52.91015 | 5.63315 | 39329 ft | 480 kts | 52° |
| 2026-04-24 10:01 | 52.95101 | 5.72077 | 39321 ft | 480 kts | 52° |
| 2026-04-24 10:01 | 52.99182 | 5.80857 | 39323 ft | 481 kts | 52° |
| 2026-04-24 10:02 | 53.03256 | 5.89653 | 39325 ft | 481 kts | 52° |
| 2026-04-24 10:02 | 53.07326 | 5.98472 | 39321 ft | 481 kts | 52° |
| 2026-04-24 10:03 | 53.11389 | 6.07308 | 39323 ft | 481 kts | 52° |
| 2026-04-24 10:03 | 53.15443 | 6.16156 | 39319 ft | 480 kts | 52° |
| 2026-04-24 10:04 | 53.19489 | 6.25019 | 39318 ft | 480 kts | 52° |
| 2026-04-24 10:04 | 53.23526 | 6.33891 | 39315 ft | 480 kts | 52° |
| 2026-04-24 10:05 | 53.27554 | 6.42773 | 39304 ft | 480 kts | 52° |
| 2026-04-24 10:05 | 53.31574 | 6.51670 | 39302 ft | 479 kts | 52° |
| 2026-04-24 10:06 | 53.38221 | 6.64076 | 39291 ft | 477 kts | 41° |
| 2026-04-24 10:07 | 53.43113 | 6.71601 | 39288 ft | 477 kts | 41° |
| 2026-04-24 10:07 | 53.47979 | 6.79146 | 39299 ft | 477 kts | 41° |
| 2026-04-24 10:08 | 53.52853 | 6.86699 | 39289 ft | 476 kts | 41° |
| 2026-04-24 10:08 | 53.57717 | 6.94267 | 39295 ft | 476 kts | 41° |
| 2026-04-24 10:09 | 53.62457 | 7.02064 | 39294 ft | 476 kts | 43° |
| 2026-04-24 10:09 | 53.67176 | 7.09901 | 39281 ft | 476 kts | 43° |
| 2026-04-24 10:10 | 53.71902 | 7.17725 | 39280 ft | 476 kts | 43° |
| 2026-04-24 10:10 | 53.76626 | 7.25558 | 39278 ft | 476 kts | 43° |
| 2026-04-24 10:11 | 53.81339 | 7.33402 | 39277 ft | 475 kts | 42° |
| 2026-04-24 10:11 | 53.86030 | 7.41232 | 39273 ft | 472 kts | 42° |
| 2026-04-24 10:12 | 53.90707 | 7.49064 | 39273 ft | 473 kts | 42° |
| 2026-04-24 10:12 | 53.95347 | 7.56862 | 39270 ft | 473 kts | 42° |
| 2026-04-24 10:13 | 54.00029 | 7.64755 | 39268 ft | 473 kts | 42° |
| 2026-04-24 10:13 | 54.04676 | 7.72624 | 39257 ft | 470 kts | 42° |
| 2026-04-24 10:14 | 54.09291 | 7.80454 | 39269 ft | 469 kts | 42° |
| 2026-04-24 10:14 | 54.13933 | 7.88353 | 39242 ft | 472 kts | 42° |
| 2026-04-24 10:15 | 54.18546 | 7.96322 | 39243 ft | 472 kts | 43° |
| 2026-04-24 10:15 | 54.23055 | 8.04422 | 39260 ft | 470 kts | 43° |
| 2026-04-24 10:16 | 54.27561 | 8.12523 | 39224 ft | 470 kts | 43° |
| 2026-04-24 10:16 | 54.32066 | 8.20619 | 39221 ft | 470 kts | 43° |
| 2026-04-24 10:17 | 54.36570 | 8.28733 | 39220 ft | 470 kts | 43° |
| 2026-04-24 10:17 | 54.40313 | 8.35500 | 39203 ft | 470 kts | 43° |
| 2026-04-24 10:18 | 54.45567 | 8.45029 | 39204 ft | 470 kts | 43° |
| 2026-04-24 10:18 | 54.50032 | 8.53159 | 39205 ft | 470 kts | 43° |
| 2026-04-24 10:19 | 54.54520 | 8.61357 | 39210 ft | 470 kts | 43° |
| 2026-04-24 10:19 | 54.58195 | 8.68311 | 39180 ft | 469 kts | 49° |
| 2026-04-24 10:20 | 54.61812 | 8.77761 | 39182 ft | 473 kts | 53° |
| 2026-04-24 10:20 | 54.65356 | 8.87340 | 39166 ft | 473 kts | 54° |
| 2026-04-24 10:21 | 54.68861 | 8.96969 | 39172 ft | 474 kts | 54° |
| 2026-04-24 10:21 | 54.72351 | 9.06630 | 39156 ft | 473 kts | 54° |
| 2026-04-24 10:22 | 54.75831 | 9.16298 | 39142 ft | 473 kts | 54° |
| 2026-04-24 10:22 | 54.79304 | 9.25985 | 39147 ft | 473 kts | 54° |
| 2026-04-24 10:23 | 54.82749 | 9.35630 | 39140 ft | 473 kts | 54° |
| 2026-04-24 10:23 | 54.86205 | 9.45344 | 39134 ft | 473 kts | 54° |
| 2026-04-24 10:24 | 54.89649 | 9.55067 | 39065 ft | 471 kts | 54° |
| 2026-04-24 10:24 | 54.91364 | 9.59921 | 38524 ft | 473 kts | 54° |
| 2026-04-24 10:24 | 54.93090 | 9.64812 | 37652 ft | 477 kts | 54° |
| 2026-04-24 10:24 | 54.94838 | 9.69772 | 36676 ft | 483 kts | 54° |
| 2026-04-24 10:25 | 54.96596 | 9.74772 | 35514 ft | 487 kts | 54° |
| 2026-04-24 10:25 | 54.98370 | 9.79832 | 34241 ft | 492 kts | 54° |
| 2026-04-24 10:25 | 55.00157 | 9.84944 | 32882 ft | 495 kts | 54° |
| 2026-04-24 10:25 | 55.01940 | 9.90062 | 31831 ft | 491 kts | 54° |
| 2026-04-24 10:26 | 55.03691 | 9.95104 | 31104 ft | 480 kts | 54° |
| 2026-04-24 10:26 | 55.05411 | 10.00064 | 30157 ft | 476 kts | 54° |
| 2026-04-24 10:26 | 55.07111 | 10.04966 | 29517 ft | 470 kts | 54° |
| 2026-04-24 10:26 | 55.08816 | 10.09883 | 29253 ft | 476 kts | 54° |
| 2026-04-24 10:27 | 55.10528 | 10.14832 | 28864 ft | 476 kts | 54° |
| 2026-04-24 10:27 | 55.12235 | 10.19782 | 28095 ft | 477 kts | 54° |
| 2026-04-24 10:27 | 55.13951 | 10.24766 | 27172 ft | 479 kts | 54° |
| 2026-04-24 10:27 | 55.15654 | 10.29731 | 26608 ft | 472 kts | 54° |
| 2026-04-24 10:28 | 55.17326 | 10.34621 | 25988 ft | 465 kts | 54° |
| 2026-04-24 10:28 | 55.18954 | 10.39388 | 25386 ft | 460 kts | 54° |
| 2026-04-24 10:28 | 55.20584 | 10.44165 | 24748 ft | 455 kts | 54° |
| 2026-04-24 10:28 | 55.22196 | 10.48897 | 24143 ft | 451 kts | 54° |
| 2026-04-24 10:29 | 55.23793 | 10.53590 | 23475 ft | 447 kts | 54° |
| 2026-04-24 10:29 | 55.25370 | 10.58237 | 22917 ft | 439 kts | 54° |
| 2026-04-24 10:29 | 55.26870 | 10.62855 | 22326 ft | 434 kts | 59° |
| 2026-04-24 10:29 | 55.28059 | 10.67697 | 21759 ft | 432 kts | 66° |
| 2026-04-24 10:30 | 55.28938 | 10.72713 | 21185 ft | 427 kts | 70° |
| 2026-04-24 10:30 | 55.29782 | 10.77675 | 20610 ft | 420 kts | 69° |
| 2026-04-24 10:30 | 55.30610 | 10.82503 | 20073 ft | 406 kts | 69° |
| 2026-04-24 10:30 | 55.31412 | 10.87181 | 19490 ft | 394 kts | 69° |
| 2026-04-24 10:31 | 55.32186 | 10.91713 | 18990 ft | 381 kts | 69° |
| 2026-04-24 10:31 | 55.32938 | 10.96134 | 18440 ft | 378 kts | 69° |
| 2026-04-24 10:31 | 55.33682 | 11.00537 | 17936 ft | 374 kts | 69° |
| 2026-04-24 10:31 | 55.34408 | 11.04890 | 17432 ft | 369 kts | 69° |
| 2026-04-24 10:32 | 55.35019 | 11.09265 | 16806 ft | 371 kts | 76° |
| 2026-04-24 10:32 | 55.35478 | 11.13765 | 16011 ft | 377 kts | 76° |
| 2026-04-24 10:32 | 55.35936 | 11.18321 | 15013 ft | 380 kts | 76° |
| 2026-04-24 10:32 | 55.36387 | 11.22968 | 13849 ft | 386 kts | 76° |
| 2026-04-24 10:33 | 55.36820 | 11.27590 | 12889 ft | 380 kts | 76° |
| 2026-04-24 10:33 | 55.37234 | 11.32119 | 12227 ft | 368 kts | 76° |
| 2026-04-24 10:33 | 55.37631 | 11.36500 | 11585 ft | 357 kts | 76° |
| 2026-04-24 10:33 | 55.38009 | 11.40713 | 11130 ft | 342 kts | 76° |
| 2026-04-24 10:34 | 55.38376 | 11.44772 | 10635 ft | 331 kts | 76° |
| 2026-04-24 10:34 | 55.38727 | 11.48681 | 10309 ft | 315 kts | 76° |
| 2026-04-24 10:34 | 55.39057 | 11.52382 | 10036 ft | 299 kts | 75° |
| 2026-04-24 10:34 | 55.39380 | 11.55965 | 9496 ft | 293 kts | 75° |
| 2026-04-24 10:35 | 55.39697 | 11.59472 | 9273 ft | 289 kts | 75° |
| 2026-04-24 10:35 | 55.40014 | 11.62972 | 9151 ft | 290 kts | 76° |
| 2026-04-24 10:35 | 55.40327 | 11.66462 | 9011 ft | 288 kts | 76° |
| 2026-04-24 10:35 | 55.40636 | 11.69942 | 8852 ft | 288 kts | 76° |
| 2026-04-24 10:36 | 55.40946 | 11.73436 | 8506 ft | 289 kts | 76° |
| 2026-04-24 10:36 | 55.41251 | 11.76884 | 8133 ft | 288 kts | 76° |
| 2026-04-24 10:36 | 55.41559 | 11.80401 | 7760 ft | 286 kts | 76° |
| 2026-04-24 10:36 | 55.41855 | 11.83801 | 7378 ft | 283 kts | 77° |
| 2026-04-24 10:37 | 55.42152 | 11.87215 | 7022 ft | 281 kts | 77° |
| 2026-04-24 10:37 | 55.42448 | 11.90604 | 6658 ft | 279 kts | 77° |
| 2026-04-24 10:37 | 55.42740 | 11.93964 | 6279 ft | 277 kts | 77° |
| 2026-04-24 10:37 | 55.43026 | 11.97301 | 5919 ft | 274 kts | 77° |
| 2026-04-24 10:38 | 55.43310 | 12.00603 | 5559 ft | 272 kts | 77° |
| 2026-04-24 10:38 | 55.43590 | 12.03878 | 5204 ft | 270 kts | 77° |
| 2026-04-24 10:38 | 55.43867 | 12.07134 | 4837 ft | 268 kts | 77° |
| 2026-04-24 10:38 | 55.44142 | 12.10362 | 4479 ft | 265 kts | 77° |
| 2026-04-24 10:39 | 55.44412 | 12.13561 | 4132 ft | 264 kts | 77° |
| 2026-04-24 10:39 | 55.44681 | 12.16755 | 3785 ft | 264 kts | 77° |
| 2026-04-24 10:39 | 55.44949 | 12.19946 | 3434 ft | 264 kts | 77° |
| 2026-04-24 10:39 | 55.45218 | 12.23132 | 3114 ft | 259 kts | 78° |
| 2026-04-24 10:40 | 55.45481 | 12.26284 | 3009 ft | 267 kts | 77° |
| 2026-04-24 10:40 | 55.45748 | 12.29490 | 2991 ft | 260 kts | 77° |
| 2026-04-24 10:40 | 55.45995 | 12.32514 | 2989 ft | 238 kts | 77° |
| 2026-04-24 10:40 | 55.46216 | 12.35266 | 2984 ft | 215 kts | 77° |
| 2026-04-24 10:41 | 55.46415 | 12.37747 | 2980 ft | 194 kts | 76° |
| 2026-04-24 10:41 | 55.46627 | 12.40102 | 2986 ft | 195 kts | 69° |
| 2026-04-24 10:41 | 55.47255 | 12.42001 | 3010 ft | 167 kts | 40° |
| 2026-04-24 10:41 | 55.48074 | 12.43253 | 2900 ft | 146 kts | 31° |
| 2026-04-24 10:42 | 55.48827 | 12.44348 | 2725 ft | 134 kts | 35° |
| 2026-04-24 10:42 | 55.49502 | 12.45383 | 2576 ft | 125 kts | 33° |
| 2026-04-24 10:42 | 55.50159 | 12.46385 | 2408 ft | 124 kts | 34° |
| 2026-04-24 10:42 | 55.50808 | 12.47383 | 2235 ft | 122 kts | 34° |
| 2026-04-24 10:43 | 55.51448 | 12.48365 | 2078 ft | 123 kts | 34° |
| 2026-04-24 10:43 | 55.52091 | 12.49357 | 1906 ft | 122 kts | 34° |
| 2026-04-24 10:43 | 55.52733 | 12.50344 | 1739 ft | 123 kts | 34° |
| 2026-04-24 10:43 | 55.53383 | 12.51345 | 1591 ft | 126 kts | 35° |
| 2026-04-24 10:44 | 55.54058 | 12.52384 | 1586 ft | 138 kts | 36° |
| 2026-04-24 10:44 | 55.54821 | 12.53601 | 1262 ft | 146 kts | 37° |
| 2026-04-24 10:44 | 55.55552 | 12.54752 | 988 ft | 135 kts | 34° |
| 2026-04-24 10:44 | 55.56237 | 12.55754 | 809 ft | 122 kts | 36° |
| 2026-04-24 10:45 | 55.56888 | 12.56760 | 657 ft | 130 kts | 37° |
| 2026-04-24 10:45 | 55.57568 | 12.57843 | 527 ft | 128 kts | 36° |
| 2026-04-24 10:45 | 55.58272 | 12.58886 | 332 ft | 140 kts | 41° |
| 2026-04-24 10:45 | 55.58975 | 12.59985 | 135 ft | 128 kts | 40° |
| 2026-04-24 10:46 | 55.59611 | 12.60957 | 23 ft | 112 kts | 41° |
| 2026-04-24 10:46 | 55.59987 | 12.61537 | 23 ft | 37 kts | 41° |
| 2026-04-24 10:46 | 55.60188 | 12.61844 | 20 ft | 39 kts | 41° |
| 2026-04-24 10:46 | 55.60447 | 12.62228 | 20 ft | 51 kts | 31° |
| 2026-04-24 10:47 | 55.60601 | 12.62333 | 25 ft | 13 kts | 15° |
| 2026-04-24 10:47 | 55.60607 | 12.62336 | 28 ft | 0 kts | 15° |
| 2026-04-24 10:47 | 55.60609 | 12.62336 | 28 ft | 2 kts | 15° |
| 2026-04-24 10:47 | 55.60673 | 12.62361 | 26 ft | 13 kts | 11° |
| 2026-04-24 10:48 | 55.60783 | 12.62409 | 23 ft | 18 kts | 23° |
| 2026-04-24 10:48 | 55.60875 | 12.62529 | 21 ft | 18 kts | 42° |
| 2026-04-24 10:48 | 55.60980 | 12.62696 | 19 ft | 21 kts | 41° |
| 2026-04-24 10:48 | 55.61099 | 12.62867 | 19 ft | 23 kts | 40° |
| 2026-04-24 10:49 | 55.61217 | 12.63057 | 21 ft | 24 kts | 43° |
| 2026-04-24 10:49 | 55.61341 | 12.63254 | 24 ft | 25 kts | 41° |
| 2026-04-24 10:49 | 55.61479 | 12.63469 | 18 ft | 28 kts | 41° |
| 2026-04-24 10:49 | 55.61631 | 12.63702 | 19 ft | 29 kts | 40° |
| 2026-04-24 10:50 | 55.61773 | 12.63922 | 21 ft | 23 kts | 42° |
| 2026-04-24 10:50 | 55.61882 | 12.64080 | 21 ft | 18 kts | 31° |
| 2026-04-24 10:50 | 55.62003 | 12.64184 | 19 ft | 21 kts | 24° |
| 2026-04-24 10:50 | 55.62147 | 12.64303 | 16 ft | 25 kts | 25° |
| 2026-04-24 10:51 | 55.62264 | 12.64471 | 19 ft | 21 kts | 66° |
| 2026-04-24 10:51 | 55.62278 | 12.64523 | 20 ft | 0 kts | 65° |
| 2026-04-24 10:52 | 55.62290 | 12.64567 | 21 ft | 8 kts | 65° |
| 2026-04-24 10:52 | 55.62291 | 12.64573 | 20 ft | 0 kts | 65° |
| 2026-04-24 10:53 | 55.62301 | 12.64611 | 19 ft | 13 kts | 65° |
| 2026-04-24 10:53 | 55.62341 | 12.64769 | 24 ft | 14 kts | 68° |
| 2026-04-24 10:53 | 55.62326 | 12.64934 | 26 ft | 15 kts | 121° |
| 2026-04-24 10:53 | 55.62272 | 12.65115 | 25 ft | 17 kts | 95° |
| 2026-04-24 10:54 | 55.62360 | 12.65195 | 21 ft | 16 kts | 349° |
| 2026-04-24 10:54 | 55.62438 | 12.65285 | 18 ft | 18 kts | 83° |
| 2026-04-24 10:54 | 55.62471 | 12.65444 | 17 ft | 7 kts | 13° |
| 2026-04-24 10:54 | 55.62513 | 12.65468 | 17 ft | 0 kts | 22° |